sensor_id;sensor_type;location;lat;lon;timestamp;P1;durP1;ratioP1;P2;durP2;ratioP2
4939;SDS011;2485;49.326;7.214;2023-12-20T00:01:33;17.17;;;8.10;;
4939;SDS011;2485;49.326;7.214;2023-12-20T00:04:00;21.30;;;9.50;;
4939;SDS011;2485;49.326;7.214;2023-12-20T00:06:27;17.30;;;9.53;;
4939;SDS011;2485;49.326;7.214;2023-12-20T00:08:54;20.27;;;10.30;;
4939;SDS011;2485;49.326;7.214;2023-12-20T00:11:21;13.60;;;8.53;;
4939;SDS011;2485;49.326;7.214;2023-12-20T00:13:47;13.77;;;7.30;;
4939;SDS011;2485;49.326;7.214;2023-12-20T00:16:14;9.10;;;5.77;;
4939;SDS011;2485;49.326;7.214;2023-12-20T00:18:42;14.07;;;7.80;;
4939;SDS011;2485;49.326;7.214;2023-12-20T00:21:09;14.17;;;8.17;;
4939;SDS011;2485;49.326;7.214;2023-12-20T00:23:39;14.20;;;7.77;;
4939;SDS011;2485;49.326;7.214;2023-12-20T00:26:06;14.33;;;8.40;;
4939;SDS011;2485;49.326;7.214;2023-12-20T00:28:32;14.00;;;8.47;;
4939;SDS011;2485;49.326;7.214;2023-12-20T00:30:59;14.27;;;8.47;;
4939;SDS011;2485;49.326;7.214;2023-12-20T00:33:26;11.83;;;7.23;;
4939;SDS011;2485;49.326;7.214;2023-12-20T00:35:55;11.60;;;7.17;;
4939;SDS011;2485;49.326;7.214;2023-12-20T00:38:22;14.97;;;7.23;;
4939;SDS011;2485;49.326;7.214;2023-12-20T00:40:49;13.63;;;8.40;;
4939;SDS011;2485;49.326;7.214;2023-12-20T00:43:15;10.53;;;6.83;;
4939;SDS011;2485;49.326;7.214;2023-12-20T00:45:42;10.20;;;6.50;;
4939;SDS011;2485;49.326;7.214;2023-12-20T00:48:09;13.90;;;8.00;;
4939;SDS011;2485;49.326;7.214;2023-12-20T00:50:36;17.30;;;9.43;;
4939;SDS011;2485;49.326;7.214;2023-12-20T00:53:04;10.93;;;6.60;;
4939;SDS011;2485;49.326;7.214;2023-12-20T00:55:31;14.30;;;7.13;;
4939;SDS011;2485;49.326;7.214;2023-12-20T00:57:58;9.20;;;5.83;;
4939;SDS011;2485;49.326;7.214;2023-12-20T01:00:25;9.53;;;6.17;;
4939;SDS011;2485;49.326;7.214;2023-12-20T01:02:52;11.50;;;6.47;;
4939;SDS011;2485;49.326;7.214;2023-12-20T01:05:19;13.43;;;7.20;;
4939;SDS011;2485;49.326;7.214;2023-12-20T01:07:48;13.33;;;7.87;;
4939;SDS011;2485;49.326;7.214;2023-12-20T01:10:16;14.67;;;7.47;;
4939;SDS011;2485;49.326;7.214;2023-12-20T01:12:44;11.47;;;7.17;;
4939;SDS011;2485;49.326;7.214;2023-12-20T01:15:10;12.43;;;7.60;;
4939;SDS011;2485;49.326;7.214;2023-12-20T01:17:37;14.37;;;8.57;;
4939;SDS011;2485;49.326;7.214;2023-12-20T01:20:05;18.63;;;9.17;;
4939;SDS011;2485;49.326;7.214;2023-12-20T01:22:31;13.60;;;7.53;;
4939;SDS011;2485;49.326;7.214;2023-12-20T01:25:00;12.10;;;6.80;;
4939;SDS011;2485;49.326;7.214;2023-12-20T01:27:29;12.43;;;7.87;;
4939;SDS011;2485;49.326;7.214;2023-12-20T01:29:56;9.17;;;5.43;;
4939;SDS011;2485;49.326;7.214;2023-12-20T01:32:23;11.23;;;6.20;;
4939;SDS011;2485;49.326;7.214;2023-12-20T01:34:50;12.30;;;6.97;;
4939;SDS011;2485;49.326;7.214;2023-12-20T01:37:16;10.83;;;6.43;;
4939;SDS011;2485;49.326;7.214;2023-12-20T01:39:43;11.90;;;7.03;;
4939;SDS011;2485;49.326;7.214;2023-12-20T01:42:10;16.60;;;7.40;;
4939;SDS011;2485;49.326;7.214;2023-12-20T01:44:38;13.00;;;6.80;;
4939;SDS011;2485;49.326;7.214;2023-12-20T01:47:05;10.97;;;6.50;;
4939;SDS011;2485;49.326;7.214;2023-12-20T01:49:32;12.83;;;6.83;;
4939;SDS011;2485;49.326;7.214;2023-12-20T01:51:59;11.03;;;6.80;;
4939;SDS011;2485;49.326;7.214;2023-12-20T01:54:26;10.03;;;6.60;;
4939;SDS011;2485;49.326;7.214;2023-12-20T01:56:53;9.90;;;6.30;;
4939;SDS011;2485;49.326;7.214;2023-12-20T01:59:19;11.73;;;7.27;;
4939;SDS011;2485;49.326;7.214;2023-12-20T02:01:48;9.77;;;6.20;;
4939;SDS011;2485;49.326;7.214;2023-12-20T02:04:15;10.93;;;6.90;;
4939;SDS011;2485;49.326;7.214;2023-12-20T02:06:42;16.03;;;8.37;;
4939;SDS011;2485;49.326;7.214;2023-12-20T02:09:10;14.13;;;7.60;;
4939;SDS011;2485;49.326;7.214;2023-12-20T02:11:36;13.20;;;7.87;;
4939;SDS011;2485;49.326;7.214;2023-12-20T02:14:03;14.60;;;8.07;;
4939;SDS011;2485;49.326;7.214;2023-12-20T02:16:30;10.83;;;7.50;;
4939;SDS011;2485;49.326;7.214;2023-12-20T02:18:58;14.43;;;8.33;;
4939;SDS011;2485;49.326;7.214;2023-12-20T02:21:31;11.87;;;8.40;;
4939;SDS011;2485;49.326;7.214;2023-12-20T02:23:58;12.50;;;8.10;;
4939;SDS011;2485;49.326;7.214;2023-12-20T02:26:24;14.90;;;8.80;;
4939;SDS011;2485;49.326;7.214;2023-12-20T02:28:51;14.37;;;8.40;;
4939;SDS011;2485;49.326;7.214;2023-12-20T02:31:20;13.13;;;8.70;;
4939;SDS011;2485;49.326;7.214;2023-12-20T02:33:47;17.40;;;10.63;;
4939;SDS011;2485;49.326;7.214;2023-12-20T02:36:13;15.40;;;8.77;;
4939;SDS011;2485;49.326;7.214;2023-12-20T02:38:42;14.60;;;9.40;;
4939;SDS011;2485;49.326;7.214;2023-12-20T02:41:09;18.50;;;10.10;;
4939;SDS011;2485;49.326;7.214;2023-12-20T02:43:35;14.37;;;9.07;;
4939;SDS011;2485;49.326;7.214;2023-12-20T02:46:02;15.87;;;9.67;;
4939;SDS011;2485;49.326;7.214;2023-12-20T02:48:29;13.87;;;9.27;;
4939;SDS011;2485;49.326;7.214;2023-12-20T02:50:56;14.60;;;10.00;;
4939;SDS011;2485;49.326;7.214;2023-12-20T02:53:23;17.70;;;9.80;;
4939;SDS011;2485;49.326;7.214;2023-12-20T02:55:52;15.37;;;9.03;;
4939;SDS011;2485;49.326;7.214;2023-12-20T02:58:18;18.67;;;10.63;;
4939;SDS011;2485;49.326;7.214;2023-12-20T03:00:45;16.63;;;9.57;;
4939;SDS011;2485;49.326;7.214;2023-12-20T03:03:12;15.50;;;10.10;;
4939;SDS011;2485;49.326;7.214;2023-12-20T03:05:39;15.70;;;10.17;;
4939;SDS011;2485;49.326;7.214;2023-12-20T03:08:06;18.90;;;11.17;;
4939;SDS011;2485;49.326;7.214;2023-12-20T03:10:33;21.60;;;11.23;;
4939;SDS011;2485;49.326;7.214;2023-12-20T03:13:01;19.10;;;10.97;;
4939;SDS011;2485;49.326;7.214;2023-12-20T03:15:28;21.50;;;11.60;;
4939;SDS011;2485;49.326;7.214;2023-12-20T03:17:54;15.83;;;10.27;;
4939;SDS011;2485;49.326;7.214;2023-12-20T03:20:21;16.40;;;9.93;;
4939;SDS011;2485;49.326;7.214;2023-12-20T03:22:48;17.67;;;10.80;;
4939;SDS011;2485;49.326;7.214;2023-12-20T03:25:15;16.40;;;10.07;;
4939;SDS011;2485;49.326;7.214;2023-12-20T03:27:41;16.30;;;9.90;;
4939;SDS011;2485;49.326;7.214;2023-12-20T03:30:10;18.30;;;10.00;;
4939;SDS011;2485;49.326;7.214;2023-12-20T03:32:37;17.27;;;10.40;;
4939;SDS011;2485;49.326;7.214;2023-12-20T03:35:04;16.37;;;9.40;;
4939;SDS011;2485;49.326;7.214;2023-12-20T03:37:32;16.93;;;9.80;;
4939;SDS011;2485;49.326;7.214;2023-12-20T03:39:58;16.43;;;9.70;;
4939;SDS011;2485;49.326;7.214;2023-12-20T03:42:25;14.40;;;8.23;;
4939;SDS011;2485;49.326;7.214;2023-12-20T03:44:52;14.37;;;9.00;;
4939;SDS011;2485;49.326;7.214;2023-12-20T03:47:20;14.30;;;9.33;;
4939;SDS011;2485;49.326;7.214;2023-12-20T03:49:47;13.40;;;8.90;;
4939;SDS011;2485;49.326;7.214;2023-12-20T03:52:13;17.23;;;9.70;;
4939;SDS011;2485;49.326;7.214;2023-12-20T03:54:40;15.40;;;9.50;;
4939;SDS011;2485;49.326;7.214;2023-12-20T03:57:08;16.40;;;9.30;;
4939;SDS011;2485;49.326;7.214;2023-12-20T03:59:35;16.90;;;9.77;;
4939;SDS011;2485;49.326;7.214;2023-12-20T04:02:02;15.53;;;9.73;;
4939;SDS011;2485;49.326;7.214;2023-12-20T04:04:30;13.23;;;8.27;;
4939;SDS011;2485;49.326;7.214;2023-12-20T04:06:57;14.93;;;9.27;;
4939;SDS011;2485;49.326;7.214;2023-12-20T04:09:24;14.90;;;8.80;;
4939;SDS011;2485;49.326;7.214;2023-12-20T04:11:51;15.00;;;9.20;;
4939;SDS011;2485;49.326;7.214;2023-12-20T04:14:17;13.87;;;9.10;;
4939;SDS011;2485;49.326;7.214;2023-12-20T04:16:44;16.13;;;8.97;;
4939;SDS011;2485;49.326;7.214;2023-12-20T04:19:11;13.20;;;8.20;;
4939;SDS011;2485;49.326;7.214;2023-12-20T04:21:39;21.20;;;12.13;;
4939;SDS011;2485;49.326;7.214;2023-12-20T04:24:06;14.97;;;10.03;;
4939;SDS011;2485;49.326;7.214;2023-12-20T04:26:33;16.13;;;9.30;;
4939;SDS011;2485;49.326;7.214;2023-12-20T04:29:00;12.83;;;8.13;;
4939;SDS011;2485;49.326;7.214;2023-12-20T04:31:27;11.10;;;7.10;;
4939;SDS011;2485;49.326;7.214;2023-12-20T04:33:54;11.30;;;7.50;;
4939;SDS011;2485;49.326;7.214;2023-12-20T04:36:20;12.47;;;6.73;;
4939;SDS011;2485;49.326;7.214;2023-12-20T04:38:49;14.13;;;6.70;;
4939;SDS011;2485;49.326;7.214;2023-12-20T04:41:15;10.07;;;5.13;;
4939;SDS011;2485;49.326;7.214;2023-12-20T04:43:44;9.70;;;4.57;;
4939;SDS011;2485;49.326;7.214;2023-12-20T04:46:10;8.33;;;5.10;;
4939;SDS011;2485;49.326;7.214;2023-12-20T04:48:37;8.70;;;4.50;;
4939;SDS011;2485;49.326;7.214;2023-12-20T04:51:04;5.70;;;3.63;;
4939;SDS011;2485;49.326;7.214;2023-12-20T04:53:31;6.93;;;4.10;;
4939;SDS011;2485;49.326;7.214;2023-12-20T04:55:59;7.70;;;4.50;;
4939;SDS011;2485;49.326;7.214;2023-12-20T04:58:26;12.93;;;4.47;;
4939;SDS011;2485;49.326;7.214;2023-12-20T05:00:53;5.03;;;3.97;;
4939;SDS011;2485;49.326;7.214;2023-12-20T05:03:19;9.20;;;4.60;;
4939;SDS011;2485;49.326;7.214;2023-12-20T05:05:46;5.70;;;4.17;;
4939;SDS011;2485;49.326;7.214;2023-12-20T05:08:13;7.23;;;3.43;;
4939;SDS011;2485;49.326;7.214;2023-12-20T05:10:40;7.43;;;3.80;;
4939;SDS011;2485;49.326;7.214;2023-12-20T05:13:08;7.17;;;3.40;;
4939;SDS011;2485;49.326;7.214;2023-12-20T05:15:36;4.60;;;3.50;;
4939;SDS011;2485;49.326;7.214;2023-12-20T05:18:03;8.17;;;4.10;;
4939;SDS011;2485;49.326;7.214;2023-12-20T05:20:30;7.20;;;3.50;;
4939;SDS011;2485;49.326;7.214;2023-12-20T05:22:56;4.30;;;3.10;;
4939;SDS011;2485;49.326;7.214;2023-12-20T05:25:23;5.43;;;3.30;;
4939;SDS011;2485;49.326;7.214;2023-12-20T05:27:50;4.07;;;2.03;;
4939;SDS011;2485;49.326;7.214;2023-12-20T05:30:18;5.20;;;3.33;;
4939;SDS011;2485;49.326;7.214;2023-12-20T05:32:45;23.77;;;3.57;;
4939;SDS011;2485;49.326;7.214;2023-12-20T05:35:12;4.57;;;1.93;;
4939;SDS011;2485;49.326;7.214;2023-12-20T05:37:39;4.73;;;2.40;;
4939;SDS011;2485;49.326;7.214;2023-12-20T05:40:06;9.03;;;2.87;;
4939;SDS011;2485;49.326;7.214;2023-12-20T05:42:35;11.60;;;3.67;;
4939;SDS011;2485;49.326;7.214;2023-12-20T05:45:02;6.00;;;3.07;;
4939;SDS011;2485;49.326;7.214;2023-12-20T05:47:30;6.80;;;3.07;;
4939;SDS011;2485;49.326;7.214;2023-12-20T05:49:57;10.03;;;5.60;;
4939;SDS011;2485;49.326;7.214;2023-12-20T05:52:23;8.67;;;3.40;;
4939;SDS011;2485;49.326;7.214;2023-12-20T05:54:50;6.83;;;2.80;;
4939;SDS011;2485;49.326;7.214;2023-12-20T05:57:17;3.00;;;2.70;;
4939;SDS011;2485;49.326;7.214;2023-12-20T05:59:44;7.13;;;2.97;;
4939;SDS011;2485;49.326;7.214;2023-12-20T06:02:11;4.97;;;2.60;;
4939;SDS011;2485;49.326;7.214;2023-12-20T06:04:39;3.90;;;3.23;;
4939;SDS011;2485;49.326;7.214;2023-12-20T06:07:08;4.70;;;2.20;;
4939;SDS011;2485;49.326;7.214;2023-12-20T06:09:35;4.83;;;2.63;;
4939;SDS011;2485;49.326;7.214;2023-12-20T06:12:01;6.20;;;2.67;;
4939;SDS011;2485;49.326;7.214;2023-12-20T06:14:28;7.17;;;3.10;;
4939;SDS011;2485;49.326;7.214;2023-12-20T06:16:55;11.67;;;2.67;;
4939;SDS011;2485;49.326;7.214;2023-12-20T06:19:22;6.03;;;2.77;;
4939;SDS011;2485;49.326;7.214;2023-12-20T06:21:51;9.53;;;2.60;;
4939;SDS011;2485;49.326;7.214;2023-12-20T06:24:17;6.33;;;2.63;;
4939;SDS011;2485;49.326;7.214;2023-12-20T06:26:44;9.07;;;2.70;;
4939;SDS011;2485;49.326;7.214;2023-12-20T06:29:11;11.30;;;3.10;;
4939;SDS011;2485;49.326;7.214;2023-12-20T06:31:47;11.50;;;2.80;;
4939;SDS011;2485;49.326;7.214;2023-12-20T06:34:14;8.70;;;3.00;;
4939;SDS011;2485;49.326;7.214;2023-12-20T06:36:41;5.90;;;2.93;;
4939;SDS011;2485;49.326;7.214;2023-12-20T06:39:10;7.50;;;2.50;;
4939;SDS011;2485;49.326;7.214;2023-12-20T06:41:38;8.63;;;3.63;;
4939;SDS011;2485;49.326;7.214;2023-12-20T06:44:07;7.80;;;3.10;;
4939;SDS011;2485;49.326;7.214;2023-12-20T06:46:34;6.10;;;3.10;;
4939;SDS011;2485;49.326;7.214;2023-12-20T06:49:01;11.50;;;3.77;;
4939;SDS011;2485;49.326;7.214;2023-12-20T06:51:28;14.17;;;4.63;;
4939;SDS011;2485;49.326;7.214;2023-12-20T06:53:56;11.73;;;3.30;;
4939;SDS011;2485;49.326;7.214;2023-12-20T06:56:30;11.07;;;4.00;;
4939;SDS011;2485;49.326;7.214;2023-12-20T06:58:57;22.87;;;4.47;;
4939;SDS011;2485;49.326;7.214;2023-12-20T07:01:27;10.83;;;4.33;;
4939;SDS011;2485;49.326;7.214;2023-12-20T07:03:53;12.63;;;4.30;;
4939;SDS011;2485;49.326;7.214;2023-12-20T07:06:20;10.20;;;4.23;;
4939;SDS011;2485;49.326;7.214;2023-12-20T07:08:48;5.33;;;3.10;;
4939;SDS011;2485;49.326;7.214;2023-12-20T07:11:15;11.10;;;4.50;;
4939;SDS011;2485;49.326;7.214;2023-12-20T07:13:43;14.07;;;4.30;;
4939;SDS011;2485;49.326;7.214;2023-12-20T07:16:10;12.80;;;4.20;;
4939;SDS011;2485;49.326;7.214;2023-12-20T07:18:40;14.47;;;5.50;;
4939;SDS011;2485;49.326;7.214;2023-12-20T07:21:06;10.33;;;4.33;;
4939;SDS011;2485;49.326;7.214;2023-12-20T07:23:34;13.03;;;5.30;;
4939;SDS011;2485;49.326;7.214;2023-12-20T07:26:01;12.30;;;5.40;;
4939;SDS011;2485;49.326;7.214;2023-12-20T07:28:29;9.50;;;3.63;;
4939;SDS011;2485;49.326;7.214;2023-12-20T07:30:57;17.67;;;3.33;;
4939;SDS011;2485;49.326;7.214;2023-12-20T07:33:24;6.57;;;4.03;;
4939;SDS011;2485;49.326;7.214;2023-12-20T07:35:51;9.70;;;3.80;;
4939;SDS011;2485;49.326;7.214;2023-12-20T07:38:18;5.33;;;2.97;;
4939;SDS011;2485;49.326;7.214;2023-12-20T07:40:45;19.50;;;3.10;;
4939;SDS011;2485;49.326;7.214;2023-12-20T07:43:11;11.13;;;3.37;;
4939;SDS011;2485;49.326;7.214;2023-12-20T07:45:38;10.00;;;3.53;;
4939;SDS011;2485;49.326;7.214;2023-12-20T07:48:07;11.10;;;3.00;;
4939;SDS011;2485;49.326;7.214;2023-12-20T07:50:34;10.40;;;3.00;;
4939;SDS011;2485;49.326;7.214;2023-12-20T07:53:01;13.23;;;2.57;;
4939;SDS011;2485;49.326;7.214;2023-12-20T07:55:28;5.63;;;2.60;;
4939;SDS011;2485;49.326;7.214;2023-12-20T07:57:55;12.20;;;2.97;;
4939;SDS011;2485;49.326;7.214;2023-12-20T08:00:22;12.00;;;3.70;;
4939;SDS011;2485;49.326;7.214;2023-12-20T08:02:49;15.77;;;4.17;;
4939;SDS011;2485;49.326;7.214;2023-12-20T08:05:17;16.07;;;3.70;;
4939;SDS011;2485;49.326;7.214;2023-12-20T08:07:44;16.87;;;3.87;;
4939;SDS011;2485;49.326;7.214;2023-12-20T08:10:10;8.20;;;3.07;;
4939;SDS011;2485;49.326;7.214;2023-12-20T08:12:38;8.17;;;3.23;;
4939;SDS011;2485;49.326;7.214;2023-12-20T08:15:05;13.97;;;3.17;;
4939;SDS011;2485;49.326;7.214;2023-12-20T08:17:32;10.80;;;4.40;;
4939;SDS011;2485;49.326;7.214;2023-12-20T08:19:59;8.97;;;4.33;;
4939;SDS011;2485;49.326;7.214;2023-12-20T08:22:27;8.30;;;3.57;;
4939;SDS011;2485;49.326;7.214;2023-12-20T08:24:54;8.47;;;3.67;;
4939;SDS011;2485;49.326;7.214;2023-12-20T08:27:21;10.40;;;4.20;;
4939;SDS011;2485;49.326;7.214;2023-12-20T08:29:47;11.23;;;4.10;;
4939;SDS011;2485;49.326;7.214;2023-12-20T08:32:16;13.00;;;3.97;;
4939;SDS011;2485;49.326;7.214;2023-12-20T08:34:45;7.47;;;3.77;;
4939;SDS011;2485;49.326;7.214;2023-12-20T08:37:12;13.87;;;3.77;;
4939;SDS011;2485;49.326;7.214;2023-12-20T08:39:40;11.23;;;4.00;;
4939;SDS011;2485;49.326;7.214;2023-12-20T08:42:08;15.23;;;3.50;;
4939;SDS011;2485;49.326;7.214;2023-12-20T08:44:35;19.70;;;4.40;;
4939;SDS011;2485;49.326;7.214;2023-12-20T08:47:02;8.40;;;4.00;;
4939;SDS011;2485;49.326;7.214;2023-12-20T08:49:29;11.97;;;4.17;;
4939;SDS011;2485;49.326;7.214;2023-12-20T08:51:56;14.00;;;3.60;;
4939;SDS011;2485;49.326;7.214;2023-12-20T08:54:23;9.00;;;3.87;;
4939;SDS011;2485;49.326;7.214;2023-12-20T08:56:51;7.83;;;3.20;;
4939;SDS011;2485;49.326;7.214;2023-12-20T08:59:18;9.90;;;3.60;;
4939;SDS011;2485;49.326;7.214;2023-12-20T09:01:45;4.83;;;3.30;;
4939;SDS011;2485;49.326;7.214;2023-12-20T09:04:13;10.37;;;3.90;;
4939;SDS011;2485;49.326;7.214;2023-12-20T09:06:40;13.77;;;4.07;;
4939;SDS011;2485;49.326;7.214;2023-12-20T09:09:06;12.60;;;3.43;;
4939;SDS011;2485;49.326;7.214;2023-12-20T09:11:35;11.43;;;4.07;;
4939;SDS011;2485;49.326;7.214;2023-12-20T09:14:03;17.50;;;4.33;;
4939;SDS011;2485;49.326;7.214;2023-12-20T09:16:30;14.23;;;4.60;;
4939;SDS011;2485;49.326;7.214;2023-12-20T09:18:58;10.93;;;4.23;;
4939;SDS011;2485;49.326;7.214;2023-12-20T09:21:24;14.80;;;4.17;;
4939;SDS011;2485;49.326;7.214;2023-12-20T09:23:51;12.80;;;4.50;;
4939;SDS011;2485;49.326;7.214;2023-12-20T09:26:18;11.23;;;4.00;;
4939;SDS011;2485;49.326;7.214;2023-12-20T09:28:46;7.27;;;3.87;;
4939;SDS011;2485;49.326;7.214;2023-12-20T09:31:14;22.43;;;5.57;;
4939;SDS011;2485;49.326;7.214;2023-12-20T09:33:41;15.83;;;4.10;;
4939;SDS011;2485;49.326;7.214;2023-12-20T09:36:08;9.30;;;3.87;;
4939;SDS011;2485;49.326;7.214;2023-12-20T09:38:35;7.50;;;3.30;;
4939;SDS011;2485;49.326;7.214;2023-12-20T09:41:00;11.97;;;4.70;;
4939;SDS011;2485;49.326;7.214;2023-12-20T09:43:29;7.60;;;3.83;;
4939;SDS011;2485;49.326;7.214;2023-12-20T09:45:57;13.73;;;4.40;;
4939;SDS011;2485;49.326;7.214;2023-12-20T09:48:28;14.97;;;4.17;;
4939;SDS011;2485;49.326;7.214;2023-12-20T09:50:56;11.10;;;4.17;;
4939;SDS011;2485;49.326;7.214;2023-12-20T09:53:23;15.53;;;4.70;;
4939;SDS011;2485;49.326;7.214;2023-12-20T09:56:02;14.53;;;4.53;;
4939;SDS011;2485;49.326;7.214;2023-12-20T09:58:29;18.63;;;6.00;;
4939;SDS011;2485;49.326;7.214;2023-12-20T10:00:56;11.07;;;4.63;;
4939;SDS011;2485;49.326;7.214;2023-12-20T10:03:23;9.23;;;3.80;;
4939;SDS011;2485;49.326;7.214;2023-12-20T10:08:54;10.20;;;3.90;;
4939;SDS011;2485;49.326;7.214;2023-12-20T10:11:22;10.43;;;4.03;;
4939;SDS011;2485;49.326;7.214;2023-12-20T10:13:49;11.13;;;3.93;;
4939;SDS011;2485;49.326;7.214;2023-12-20T10:16:18;20.40;;;3.90;;
4939;SDS011;2485;49.326;7.214;2023-12-20T10:18:52;9.93;;;3.77;;
4939;SDS011;2485;49.326;7.214;2023-12-20T10:21:19;14.47;;;4.27;;
4939;SDS011;2485;49.326;7.214;2023-12-20T10:23:45;9.77;;;4.20;;
4939;SDS011;2485;49.326;7.214;2023-12-20T10:26:20;13.53;;;3.80;;
4939;SDS011;2485;49.326;7.214;2023-12-20T10:28:49;12.43;;;4.67;;
4939;SDS011;2485;49.326;7.214;2023-12-20T10:31:25;7.80;;;3.20;;
4939;SDS011;2485;49.326;7.214;2023-12-20T10:33:52;15.83;;;4.47;;
4939;SDS011;2485;49.326;7.214;2023-12-20T10:36:19;5.70;;;2.77;;
4939;SDS011;2485;49.326;7.214;2023-12-20T10:38:46;10.87;;;3.73;;
4939;SDS011;2485;49.326;7.214;2023-12-20T10:41:15;14.17;;;4.10;;
4939;SDS011;2485;49.326;7.214;2023-12-20T10:43:45;20.47;;;3.60;;
4939;SDS011;2485;49.326;7.214;2023-12-20T10:46:12;12.80;;;3.53;;
4939;SDS011;2485;49.326;7.214;2023-12-20T10:48:39;9.57;;;3.20;;
4939;SDS011;2485;49.326;7.214;2023-12-20T10:51:06;7.97;;;3.30;;
4939;SDS011;2485;49.326;7.214;2023-12-20T10:53:34;11.70;;;3.50;;
4939;SDS011;2485;49.326;7.214;2023-12-20T10:56:03;7.93;;;2.87;;
4939;SDS011;2485;49.326;7.214;2023-12-20T10:58:30;7.70;;;3.30;;
4939;SDS011;2485;49.326;7.214;2023-12-20T11:01:00;18.23;;;4.30;;
4939;SDS011;2485;49.326;7.214;2023-12-20T11:03:28;6.57;;;3.10;;
4939;SDS011;2485;49.326;7.214;2023-12-20T11:05:59;15.47;;;3.30;;
4939;SDS011;2485;49.326;7.214;2023-12-20T11:08:32;17.37;;;3.70;;
4939;SDS011;2485;49.326;7.214;2023-12-20T11:13:31;11.90;;;3.40;;
4939;SDS011;2485;49.326;7.214;2023-12-20T11:16:00;13.97;;;3.07;;
4939;SDS011;2485;49.326;7.214;2023-12-20T11:18:28;9.40;;;3.23;;
4939;SDS011;2485;49.326;7.214;2023-12-20T11:20:55;16.73;;;3.10;;
4939;SDS011;2485;49.326;7.214;2023-12-20T11:23:26;11.37;;;2.93;;
4939;SDS011;2485;49.326;7.214;2023-12-20T11:25:54;11.50;;;3.00;;
4939;SDS011;2485;49.326;7.214;2023-12-20T11:28:23;12.90;;;3.40;;
4939;SDS011;2485;49.326;7.214;2023-12-20T11:30:51;8.93;;;3.40;;
4939;SDS011;2485;49.326;7.214;2023-12-20T11:33:22;14.23;;;4.83;;
4939;SDS011;2485;49.326;7.214;2023-12-20T11:35:49;15.33;;;3.73;;
4939;SDS011;2485;49.326;7.214;2023-12-20T11:38:16;8.87;;;3.73;;
4939;SDS011;2485;49.326;7.214;2023-12-20T11:40:43;9.27;;;3.70;;
4939;SDS011;2485;49.326;7.214;2023-12-20T11:43:10;11.40;;;3.60;;
4939;SDS011;2485;49.326;7.214;2023-12-20T11:45:37;9.57;;;3.27;;
4939;SDS011;2485;49.326;7.214;2023-12-20T11:48:04;11.30;;;3.07;;
4939;SDS011;2485;49.326;7.214;2023-12-20T11:50:32;8.60;;;3.13;;
4939;SDS011;2485;49.326;7.214;2023-12-20T11:52:59;6.83;;;2.90;;
4939;SDS011;2485;49.326;7.214;2023-12-20T11:55:26;4.23;;;2.10;;
4939;SDS011;2485;49.326;7.214;2023-12-20T11:57:52;7.87;;;3.00;;
4939;SDS011;2485;49.326;7.214;2023-12-20T12:00:19;7.30;;;2.87;;
4939;SDS011;2485;49.326;7.214;2023-12-20T12:02:56;9.73;;;2.67;;
4939;SDS011;2485;49.326;7.214;2023-12-20T12:05:23;8.80;;;3.00;;
4939;SDS011;2485;49.326;7.214;2023-12-20T12:07:54;11.90;;;3.23;;
4939;SDS011;2485;49.326;7.214;2023-12-20T12:10:21;17.87;;;3.27;;
4939;SDS011;2485;49.326;7.214;2023-12-20T12:12:48;10.40;;;3.00;;
4939;SDS011;2485;49.326;7.214;2023-12-20T12:15:14;12.30;;;3.00;;
4939;SDS011;2485;49.326;7.214;2023-12-20T12:17:41;6.13;;;2.20;;
4939;SDS011;2485;49.326;7.214;2023-12-20T12:20:08;7.43;;;2.33;;
4939;SDS011;2485;49.326;7.214;2023-12-20T12:22:35;9.50;;;2.70;;
4939;SDS011;2485;49.326;7.214;2023-12-20T12:25:13;12.20;;;3.03;;
4939;SDS011;2485;49.326;7.214;2023-12-20T12:27:40;6.07;;;2.43;;
4939;SDS011;2485;49.326;7.214;2023-12-20T12:30:08;5.00;;;2.10;;
4939;SDS011;2485;49.326;7.214;2023-12-20T12:32:35;8.00;;;2.37;;
4939;SDS011;2485;49.326;7.214;2023-12-20T12:35:02;11.70;;;3.13;;
4939;SDS011;2485;49.326;7.214;2023-12-20T12:37:29;14.27;;;3.30;;
4939;SDS011;2485;49.326;7.214;2023-12-20T12:39:56;7.20;;;3.43;;
4939;SDS011;2485;49.326;7.214;2023-12-20T12:42:25;13.50;;;2.47;;
4939;SDS011;2485;49.326;7.214;2023-12-20T12:44:54;10.67;;;2.80;;
4939;SDS011;2485;49.326;7.214;2023-12-20T12:47:20;9.13;;;2.60;;
4939;SDS011;2485;49.326;7.214;2023-12-20T12:49:47;14.80;;;3.10;;
4939;SDS011;2485;49.326;7.214;2023-12-20T12:52:15;11.63;;;2.70;;
4939;SDS011;2485;49.326;7.214;2023-12-20T12:54:42;6.30;;;4.13;;
4939;SDS011;2485;49.326;7.214;2023-12-20T12:57:10;12.27;;;3.57;;
4939;SDS011;2485;49.326;7.214;2023-12-20T12:59:38;10.63;;;3.30;;
4939;SDS011;2485;49.326;7.214;2023-12-20T13:02:05;8.97;;;3.17;;
4939;SDS011;2485;49.326;7.214;2023-12-20T13:04:33;17.13;;;3.20;;
4939;SDS011;2485;49.326;7.214;2023-12-20T13:07:00;15.13;;;3.67;;
4939;SDS011;2485;49.326;7.214;2023-12-20T13:09:27;13.90;;;3.67;;
4939;SDS011;2485;49.326;7.214;2023-12-20T13:11:53;11.73;;;4.40;;
4939;SDS011;2485;49.326;7.214;2023-12-20T13:14:24;8.17;;;3.40;;
4939;SDS011;2485;49.326;7.214;2023-12-20T13:16:52;11.50;;;3.57;;
4939;SDS011;2485;49.326;7.214;2023-12-20T13:19:19;6.30;;;2.20;;
4939;SDS011;2485;49.326;7.214;2023-12-20T13:21:46;7.80;;;2.47;;
4939;SDS011;2485;49.326;7.214;2023-12-20T13:24:14;13.63;;;3.13;;
4939;SDS011;2485;49.326;7.214;2023-12-20T13:26:40;10.70;;;2.97;;
4939;SDS011;2485;49.326;7.214;2023-12-20T13:29:07;6.67;;;2.57;;
4939;SDS011;2485;49.326;7.214;2023-12-20T13:31:34;9.33;;;2.70;;
4939;SDS011;2485;49.326;7.214;2023-12-20T13:34:04;11.20;;;3.13;;
4939;SDS011;2485;49.326;7.214;2023-12-20T13:36:31;10.13;;;3.10;;
4939;SDS011;2485;49.326;7.214;2023-12-20T13:38:58;10.90;;;3.60;;
4939;SDS011;2485;49.326;7.214;2023-12-20T13:41:24;9.13;;;2.80;;
4939;SDS011;2485;49.326;7.214;2023-12-20T13:43:51;9.63;;;2.37;;
4939;SDS011;2485;49.326;7.214;2023-12-20T13:46:19;10.90;;;3.03;;
4939;SDS011;2485;49.326;7.214;2023-12-20T13:48:46;10.20;;;3.10;;
4939;SDS011;2485;49.326;7.214;2023-12-20T13:51:14;5.23;;;2.57;;
4939;SDS011;2485;49.326;7.214;2023-12-20T13:53:40;18.13;;;2.73;;
4939;SDS011;2485;49.326;7.214;2023-12-20T13:56:07;12.67;;;2.87;;
4939;SDS011;2485;49.326;7.214;2023-12-20T13:58:34;10.00;;;2.40;;
4939;SDS011;2485;49.326;7.214;2023-12-20T14:01:01;14.90;;;3.57;;
4939;SDS011;2485;49.326;7.214;2023-12-20T14:03:28;14.00;;;3.20;;
4939;SDS011;2485;49.326;7.214;2023-12-20T14:05:56;10.90;;;2.90;;
4939;SDS011;2485;49.326;7.214;2023-12-20T14:08:24;9.00;;;3.60;;
4939;SDS011;2485;49.326;7.214;2023-12-20T14:10:52;8.97;;;2.50;;
4939;SDS011;2485;49.326;7.214;2023-12-20T14:13:19;12.00;;;2.43;;
4939;SDS011;2485;49.326;7.214;2023-12-20T14:15:46;9.63;;;2.80;;
4939;SDS011;2485;49.326;7.214;2023-12-20T14:18:14;11.63;;;2.90;;
4939;SDS011;2485;49.326;7.214;2023-12-20T14:20:42;10.43;;;3.07;;
4939;SDS011;2485;49.326;7.214;2023-12-20T14:23:09;6.43;;;2.77;;
4939;SDS011;2485;49.326;7.214;2023-12-20T14:25:38;18.50;;;5.83;;
4939;SDS011;2485;49.326;7.214;2023-12-20T14:28:05;13.27;;;4.63;;
4939;SDS011;2485;49.326;7.214;2023-12-20T14:30:31;13.90;;;5.03;;
4939;SDS011;2485;49.326;7.214;2023-12-20T14:32:58;7.80;;;3.00;;
4939;SDS011;2485;49.326;7.214;2023-12-20T14:35:25;13.73;;;3.70;;
4939;SDS011;2485;49.326;7.214;2023-12-20T14:37:52;8.70;;;3.20;;
4939;SDS011;2485;49.326;7.214;2023-12-20T14:40:19;16.10;;;4.87;;
4939;SDS011;2485;49.326;7.214;2023-12-20T14:42:47;12.07;;;3.93;;
4939;SDS011;2485;49.326;7.214;2023-12-20T14:45:14;11.60;;;4.60;;
4939;SDS011;2485;49.326;7.214;2023-12-20T14:47:41;13.87;;;4.40;;
4939;SDS011;2485;49.326;7.214;2023-12-20T14:50:08;18.30;;;5.40;;
4939;SDS011;2485;49.326;7.214;2023-12-20T14:52:36;15.93;;;4.77;;
4939;SDS011;2485;49.326;7.214;2023-12-20T14:55:03;23.20;;;5.30;;
4939;SDS011;2485;49.326;7.214;2023-12-20T14:57:30;11.47;;;3.60;;
4939;SDS011;2485;49.326;7.214;2023-12-20T14:59:58;13.67;;;4.50;;
4939;SDS011;2485;49.326;7.214;2023-12-20T15:02:24;11.97;;;4.70;;
4939;SDS011;2485;49.326;7.214;2023-12-20T15:04:51;14.03;;;4.70;;
4939;SDS011;2485;49.326;7.214;2023-12-20T15:07:18;17.37;;;4.77;;
4939;SDS011;2485;49.326;7.214;2023-12-20T15:09:45;16.20;;;4.90;;
4939;SDS011;2485;49.326;7.214;2023-12-20T15:12:13;19.10;;;4.57;;